sensor_id;sensor_type;location;lat;lon;timestamp;P1;durP1;ratioP1;P2;durP2;ratioP2
4873;SDS011;2451;49.970;9.068;2024-03-02T00:00:23;12.52;;;8.07;;
4873;SDS011;2451;49.970;9.068;2024-03-02T00:02:50;15.07;;;8.88;;
4873;SDS011;2451;49.970;9.068;2024-03-02T00:05:20;12.75;;;8.15;;
4873;SDS011;2451;49.970;9.068;2024-03-02T00:07:53;13.55;;;8.30;;
4873;SDS011;2451;49.970;9.068;2024-03-02T00:10:25;14.05;;;8.55;;
4873;SDS011;2451;49.970;9.068;2024-03-02T00:12:55;12.25;;;8.13;;
4873;SDS011;2451;49.970;9.068;2024-03-02T00:15:40;12.18;;;7.20;;
4873;SDS011;2451;49.970;9.068;2024-03-02T00:18:10;13.48;;;7.70;;
4873;SDS011;2451;49.970;9.068;2024-03-02T00:20:37;14.00;;;8.30;;
4873;SDS011;2451;49.970;9.068;2024-03-02T00:23:04;13.40;;;7.85;;
4873;SDS011;2451;49.970;9.068;2024-03-02T00:25:41;13.93;;;8.30;;
4873;SDS011;2451;49.970;9.068;2024-03-02T00:30:52;12.50;;;8.15;;
4873;SDS011;2451;49.970;9.068;2024-03-02T00:33:22;13.75;;;8.23;;
4873;SDS011;2451;49.970;9.068;2024-03-02T00:35:48;14.60;;;8.85;;
4873;SDS011;2451;49.970;9.068;2024-03-02T00:38:14;15.02;;;8.63;;
4873;SDS011;2451;49.970;9.068;2024-03-02T00:40:41;13.30;;;9.10;;
4873;SDS011;2451;49.970;9.068;2024-03-02T00:43:10;14.15;;;9.27;;
4873;SDS011;2451;49.970;9.068;2024-03-02T00:45:49;15.82;;;9.93;;
4873;SDS011;2451;49.970;9.068;2024-03-02T00:48:15;15.90;;;10.00;;
4873;SDS011;2451;49.970;9.068;2024-03-02T00:50:41;16.13;;;10.07;;
4873;SDS011;2451;49.970;9.068;2024-03-02T00:53:09;13.65;;;9.00;;
4873;SDS011;2451;49.970;9.068;2024-03-02T00:55:36;14.90;;;9.68;;
4873;SDS011;2451;49.970;9.068;2024-03-02T00:58:03;17.13;;;10.63;;
4873;SDS011;2451;49.970;9.068;2024-03-02T01:00:29;16.25;;;9.82;;
4873;SDS011;2451;49.970;9.068;2024-03-02T01:02:54;19.00;;;11.05;;
4873;SDS011;2451;49.970;9.068;2024-03-02T01:05:20;15.05;;;9.50;;
4873;SDS011;2451;49.970;9.068;2024-03-02T01:07:45;16.67;;;9.32;;
4873;SDS011;2451;49.970;9.068;2024-03-02T01:10:11;15.82;;;10.15;;
4873;SDS011;2451;49.970;9.068;2024-03-02T01:12:37;18.20;;;10.55;;
4873;SDS011;2451;49.970;9.068;2024-03-02T01:15:03;15.90;;;10.13;;
4873;SDS011;2451;49.970;9.068;2024-03-02T01:17:30;15.38;;;9.75;;
4873;SDS011;2451;49.970;9.068;2024-03-02T01:19:56;14.93;;;9.60;;
4873;SDS011;2451;49.970;9.068;2024-03-02T01:22:22;16.48;;;10.07;;
4873;SDS011;2451;49.970;9.068;2024-03-02T01:24:50;17.42;;;10.35;;
4873;SDS011;2451;49.970;9.068;2024-03-02T01:27:16;16.17;;;9.77;;
4873;SDS011;2451;49.970;9.068;2024-03-02T01:29:41;14.30;;;9.80;;
4873;SDS011;2451;49.970;9.068;2024-03-02T01:32:07;17.25;;;10.13;;
4873;SDS011;2451;49.970;9.068;2024-03-02T01:34:32;16.67;;;10.23;;
4873;SDS011;2451;49.970;9.068;2024-03-02T01:36:58;18.77;;;10.52;;
4873;SDS011;2451;49.970;9.068;2024-03-02T01:39:24;14.73;;;8.68;;
4873;SDS011;2451;49.970;9.068;2024-03-02T01:41:49;14.65;;;9.15;;
4873;SDS011;2451;49.970;9.068;2024-03-02T01:44:15;17.00;;;10.18;;
4873;SDS011;2451;49.970;9.068;2024-03-02T01:46:40;16.13;;;10.38;;
4873;SDS011;2451;49.970;9.068;2024-03-02T01:49:06;16.75;;;10.07;;
4873;SDS011;2451;49.970;9.068;2024-03-02T01:51:31;15.25;;;9.27;;
4873;SDS011;2451;49.970;9.068;2024-03-02T01:53:57;17.70;;;10.23;;
4873;SDS011;2451;49.970;9.068;2024-03-02T01:56:23;17.98;;;10.60;;
4873;SDS011;2451;49.970;9.068;2024-03-02T01:58:49;16.52;;;10.75;;
4873;SDS011;2451;49.970;9.068;2024-03-02T02:01:14;15.93;;;9.65;;
4873;SDS011;2451;49.970;9.068;2024-03-02T02:03:41;16.33;;;10.00;;
4873;SDS011;2451;49.970;9.068;2024-03-02T02:06:08;16.08;;;9.95;;
4873;SDS011;2451;49.970;9.068;2024-03-02T02:08:34;16.23;;;9.80;;
4873;SDS011;2451;49.970;9.068;2024-03-02T02:11:02;17.75;;;9.93;;
4873;SDS011;2451;49.970;9.068;2024-03-02T02:13:28;16.48;;;9.98;;
4873;SDS011;2451;49.970;9.068;2024-03-02T02:15:53;18.08;;;10.02;;
4873;SDS011;2451;49.970;9.068;2024-03-02T02:18:19;13.02;;;9.27;;
4873;SDS011;2451;49.970;9.068;2024-03-02T02:20:45;14.60;;;9.63;;
4873;SDS011;2451;49.970;9.068;2024-03-02T02:23:10;16.10;;;9.93;;
4873;SDS011;2451;49.970;9.068;2024-03-02T02:25:37;17.70;;;10.85;;
4873;SDS011;2451;49.970;9.068;2024-03-02T02:28:03;17.95;;;11.00;;
4873;SDS011;2451;49.970;9.068;2024-03-02T02:30:29;17.13;;;10.52;;
4873;SDS011;2451;49.970;9.068;2024-03-02T02:32:56;18.08;;;11.20;;
4873;SDS011;2451;49.970;9.068;2024-03-02T02:35:23;20.00;;;10.77;;
4873;SDS011;2451;49.970;9.068;2024-03-02T02:37:52;18.27;;;11.73;;
4873;SDS011;2451;49.970;9.068;2024-03-02T02:40:18;17.33;;;11.00;;
4873;SDS011;2451;49.970;9.068;2024-03-02T02:42:44;20.60;;;10.90;;
4873;SDS011;2451;49.970;9.068;2024-03-02T02:45:10;16.65;;;10.50;;
4873;SDS011;2451;49.970;9.068;2024-03-02T02:47:38;19.92;;;11.48;;
4873;SDS011;2451;49.970;9.068;2024-03-02T02:50:04;19.58;;;11.20;;
4873;SDS011;2451;49.970;9.068;2024-03-02T02:52:32;19.95;;;11.85;;
4873;SDS011;2451;49.970;9.068;2024-03-02T02:54:58;20.17;;;12.15;;
4873;SDS011;2451;49.970;9.068;2024-03-02T02:57:24;19.60;;;12.18;;
4873;SDS011;2451;49.970;9.068;2024-03-02T02:59:50;19.70;;;12.25;;
4873;SDS011;2451;49.970;9.068;2024-03-02T03:02:15;20.95;;;12.73;;
4873;SDS011;2451;49.970;9.068;2024-03-02T03:04:41;18.90;;;11.82;;
4873;SDS011;2451;49.970;9.068;2024-03-02T03:07:06;18.08;;;11.27;;
4873;SDS011;2451;49.970;9.068;2024-03-02T03:09:36;20.77;;;12.13;;
4873;SDS011;2451;49.970;9.068;2024-03-02T03:12:03;22.92;;;13.18;;
4873;SDS011;2451;49.970;9.068;2024-03-02T03:14:29;18.75;;;11.88;;
4873;SDS011;2451;49.970;9.068;2024-03-02T03:16:55;21.90;;;12.55;;
4873;SDS011;2451;49.970;9.068;2024-03-02T03:19:20;21.25;;;13.15;;
4873;SDS011;2451;49.970;9.068;2024-03-02T03:21:46;21.60;;;12.77;;
4873;SDS011;2451;49.970;9.068;2024-03-02T03:24:11;19.45;;;11.52;;
4873;SDS011;2451;49.970;9.068;2024-03-02T03:26:37;21.63;;;11.63;;
4873;SDS011;2451;49.970;9.068;2024-03-02T03:29:03;22.08;;;13.30;;
4873;SDS011;2451;49.970;9.068;2024-03-02T03:31:29;21.40;;;12.60;;
4873;SDS011;2451;49.970;9.068;2024-03-02T03:33:54;23.08;;;14.02;;
4873;SDS011;2451;49.970;9.068;2024-03-02T03:36:20;22.40;;;13.25;;
4873;SDS011;2451;49.970;9.068;2024-03-02T03:38:46;20.65;;;12.50;;
4873;SDS011;2451;49.970;9.068;2024-03-02T03:41:11;25.27;;;13.75;;
4873;SDS011;2451;49.970;9.068;2024-03-02T03:43:37;22.17;;;12.70;;
4873;SDS011;2451;49.970;9.068;2024-03-02T03:46:02;22.52;;;12.27;;
4873;SDS011;2451;49.970;9.068;2024-03-02T03:48:28;23.85;;;14.18;;
4873;SDS011;2451;49.970;9.068;2024-03-02T03:50:56;22.25;;;14.05;;
4873;SDS011;2451;49.970;9.068;2024-03-02T03:53:22;23.67;;;13.77;;
4873;SDS011;2451;49.970;9.068;2024-03-02T03:55:50;23.98;;;13.13;;
4873;SDS011;2451;49.970;9.068;2024-03-02T03:58:15;24.67;;;13.45;;
4873;SDS011;2451;49.970;9.068;2024-03-02T04:00:42;23.33;;;13.85;;
4873;SDS011;2451;49.970;9.068;2024-03-02T04:03:08;24.38;;;13.32;;
4873;SDS011;2451;49.970;9.068;2024-03-02T04:05:33;23.95;;;14.70;;
4873;SDS011;2451;49.970;9.068;2024-03-02T04:07:59;20.70;;;12.15;;
4873;SDS011;2451;49.970;9.068;2024-03-02T04:10:26;20.38;;;12.63;;
4873;SDS011;2451;49.970;9.068;2024-03-02T04:12:51;23.55;;;13.10;;
4873;SDS011;2451;49.970;9.068;2024-03-02T04:15:17;22.27;;;13.40;;
4873;SDS011;2451;49.970;9.068;2024-03-02T04:17:43;24.77;;;13.68;;
4873;SDS011;2451;49.970;9.068;2024-03-02T04:20:09;22.60;;;14.15;;
4873;SDS011;2451;49.970;9.068;2024-03-02T04:22:37;23.85;;;12.90;;
4873;SDS011;2451;49.970;9.068;2024-03-02T04:25:03;23.08;;;13.98;;
4873;SDS011;2451;49.970;9.068;2024-03-02T04:27:29;24.35;;;13.55;;
4873;SDS011;2451;49.970;9.068;2024-03-02T04:29:56;23.90;;;13.60;;
4873;SDS011;2451;49.970;9.068;2024-03-02T04:32:22;24.42;;;13.45;;
4873;SDS011;2451;49.970;9.068;2024-03-02T04:34:48;25.27;;;13.35;;
4873;SDS011;2451;49.970;9.068;2024-03-02T04:37:13;27.38;;;13.60;;
4873;SDS011;2451;49.970;9.068;2024-03-02T04:39:39;23.55;;;13.23;;
4873;SDS011;2451;49.970;9.068;2024-03-02T04:42:05;24.00;;;13.07;;
4873;SDS011;2451;49.970;9.068;2024-03-02T04:44:30;24.00;;;13.27;;
4873;SDS011;2451;49.970;9.068;2024-03-02T04:46:56;24.98;;;13.73;;
4873;SDS011;2451;49.970;9.068;2024-03-02T04:49:22;22.70;;;12.90;;
4873;SDS011;2451;49.970;9.068;2024-03-02T04:51:48;25.20;;;13.73;;
4873;SDS011;2451;49.970;9.068;2024-03-02T04:54:13;23.98;;;13.25;;
4873;SDS011;2451;49.970;9.068;2024-03-02T04:56:39;26.52;;;13.50;;
4873;SDS011;2451;49.970;9.068;2024-03-02T04:59:09;25.92;;;13.82;;
4873;SDS011;2451;49.970;9.068;2024-03-02T05:01:35;26.45;;;14.48;;
4873;SDS011;2451;49.970;9.068;2024-03-02T05:04:01;24.40;;;13.90;;
4873;SDS011;2451;49.970;9.068;2024-03-02T05:06:27;26.65;;;14.05;;
4873;SDS011;2451;49.970;9.068;2024-03-02T05:08:52;27.80;;;13.35;;
4873;SDS011;2451;49.970;9.068;2024-03-02T05:11:18;24.75;;;12.93;;
4873;SDS011;2451;49.970;9.068;2024-03-02T05:14:16;24.90;;;13.30;;
4873;SDS011;2451;49.970;9.068;2024-03-02T05:16:41;24.83;;;13.30;;
4873;SDS011;2451;49.970;9.068;2024-03-02T05:19:07;24.65;;;13.07;;
4873;SDS011;2451;49.970;9.068;2024-03-02T05:21:33;27.27;;;13.82;;
4873;SDS011;2451;49.970;9.068;2024-03-02T05:23:59;27.88;;;13.52;;
4873;SDS011;2451;49.970;9.068;2024-03-02T05:26:25;24.83;;;14.00;;
4873;SDS011;2451;49.970;9.068;2024-03-02T05:28:50;27.92;;;14.65;;
4873;SDS011;2451;49.970;9.068;2024-03-02T05:31:16;26.85;;;13.93;;
4873;SDS011;2451;49.970;9.068;2024-03-02T05:33:42;26.20;;;13.98;;
4873;SDS011;2451;49.970;9.068;2024-03-02T05:36:08;28.40;;;14.55;;
4873;SDS011;2451;49.970;9.068;2024-03-02T05:38:37;26.73;;;14.15;;
4873;SDS011;2451;49.970;9.068;2024-03-02T05:41:02;27.65;;;14.77;;
4873;SDS011;2451;49.970;9.068;2024-03-02T05:43:28;27.20;;;14.25;;
4873;SDS011;2451;49.970;9.068;2024-03-02T05:45:54;26.92;;;14.18;;
4873;SDS011;2451;49.970;9.068;2024-03-02T05:48:19;24.92;;;13.32;;
4873;SDS011;2451;49.970;9.068;2024-03-02T05:50:45;26.50;;;13.30;;
4873;SDS011;2451;49.970;9.068;2024-03-02T05:53:10;24.33;;;13.75;;
4873;SDS011;2451;49.970;9.068;2024-03-02T05:55:36;26.70;;;13.75;;
4873;SDS011;2451;49.970;9.068;2024-03-02T05:58:02;26.20;;;13.15;;
4873;SDS011;2451;49.970;9.068;2024-03-02T06:00:47;28.13;;;14.35;;
4873;SDS011;2451;49.970;9.068;2024-03-02T06:03:13;25.23;;;12.45;;
4873;SDS011;2451;49.970;9.068;2024-03-02T06:05:38;25.25;;;13.48;;
4873;SDS011;2451;49.970;9.068;2024-03-02T06:08:05;25.38;;;13.50;;
4873;SDS011;2451;49.970;9.068;2024-03-02T06:10:32;21.95;;;12.38;;
4873;SDS011;2451;49.970;9.068;2024-03-02T06:12:58;23.17;;;12.25;;
4873;SDS011;2451;49.970;9.068;2024-03-02T06:15:24;26.92;;;12.38;;
4873;SDS011;2451;49.970;9.068;2024-03-02T06:17:49;23.33;;;12.68;;
4873;SDS011;2451;49.970;9.068;2024-03-02T06:20:15;24.65;;;12.93;;
4873;SDS011;2451;49.970;9.068;2024-03-02T06:22:40;24.75;;;12.55;;
4873;SDS011;2451;49.970;9.068;2024-03-02T06:25:06;23.95;;;12.55;;
4873;SDS011;2451;49.970;9.068;2024-03-02T06:27:32;21.35;;;12.15;;
4873;SDS011;2451;49.970;9.068;2024-03-02T06:29:57;24.77;;;12.80;;
4873;SDS011;2451;49.970;9.068;2024-03-02T06:32:23;25.98;;;13.32;;
4873;SDS011;2451;49.970;9.068;2024-03-02T06:34:50;23.08;;;13.00;;
4873;SDS011;2451;49.970;9.068;2024-03-02T06:37:15;24.88;;;13.75;;
4873;SDS011;2451;49.970;9.068;2024-03-02T06:39:41;21.35;;;12.95;;
4873;SDS011;2451;49.970;9.068;2024-03-02T06:42:07;23.60;;;13.63;;
4873;SDS011;2451;49.970;9.068;2024-03-02T06:44:32;23.75;;;13.52;;
4873;SDS011;2451;49.970;9.068;2024-03-02T06:46:58;24.08;;;12.45;;
4873;SDS011;2451;49.970;9.068;2024-03-02T06:49:24;24.05;;;13.48;;
4873;SDS011;2451;49.970;9.068;2024-03-02T06:51:49;24.55;;;12.63;;
4873;SDS011;2451;49.970;9.068;2024-03-02T06:54:15;24.50;;;12.27;;
4873;SDS011;2451;49.970;9.068;2024-03-02T06:56:41;21.88;;;12.52;;
4873;SDS011;2451;49.970;9.068;2024-03-02T06:59:06;24.50;;;12.15;;
4873;SDS011;2451;49.970;9.068;2024-03-02T07:01:32;22.17;;;12.07;;
4873;SDS011;2451;49.970;9.068;2024-03-02T07:03:57;20.50;;;11.25;;
4873;SDS011;2451;49.970;9.068;2024-03-02T07:06:23;24.00;;;12.10;;
4873;SDS011;2451;49.970;9.068;2024-03-02T07:08:48;22.25;;;11.63;;
4873;SDS011;2451;49.970;9.068;2024-03-02T07:11:14;21.85;;;11.20;;
4873;SDS011;2451;49.970;9.068;2024-03-02T07:13:39;21.45;;;10.82;;
4873;SDS011;2451;49.970;9.068;2024-03-02T07:16:05;20.77;;;11.23;;
4873;SDS011;2451;49.970;9.068;2024-03-02T07:18:49;27.90;;;15.18;;
4873;SDS011;2451;49.970;9.068;2024-03-02T07:21:16;26.30;;;13.48;;
4873;SDS011;2451;49.970;9.068;2024-03-02T07:23:42;22.42;;;12.38;;
4873;SDS011;2451;49.970;9.068;2024-03-02T07:26:08;21.00;;;12.63;;
4873;SDS011;2451;49.970;9.068;2024-03-02T07:28:33;21.98;;;11.95;;
4873;SDS011;2451;49.970;9.068;2024-03-02T07:33:25;21.23;;;12.45;;
4873;SDS011;2451;49.970;9.068;2024-03-02T07:35:51;21.40;;;11.02;;
4873;SDS011;2451;49.970;9.068;2024-03-02T07:38:17;23.92;;;11.27;;
4873;SDS011;2451;49.970;9.068;2024-03-02T07:40:42;20.42;;;10.77;;
4873;SDS011;2451;49.970;9.068;2024-03-02T07:43:08;19.70;;;10.63;;
4873;SDS011;2451;49.970;9.068;2024-03-02T07:45:34;21.83;;;11.75;;
4873;SDS011;2451;49.970;9.068;2024-03-02T07:48:03;22.35;;;11.73;;
4873;SDS011;2451;49.970;9.068;2024-03-02T07:50:29;20.88;;;11.10;;
4873;SDS011;2451;49.970;9.068;2024-03-02T07:52:55;22.77;;;11.90;;
4873;SDS011;2451;49.970;9.068;2024-03-02T07:55:21;19.33;;;11.48;;
4873;SDS011;2451;49.970;9.068;2024-03-02T07:57:48;21.30;;;11.40;;
4873;SDS011;2451;49.970;9.068;2024-03-02T08:00:15;20.90;;;11.73;;
4873;SDS011;2451;49.970;9.068;2024-03-02T08:02:40;20.65;;;11.77;;
4873;SDS011;2451;49.970;9.068;2024-03-02T08:05:07;20.40;;;11.70;;
4873;SDS011;2451;49.970;9.068;2024-03-02T08:07:33;24.60;;;13.02;;
4873;SDS011;2451;49.970;9.068;2024-03-02T08:09:59;28.13;;;14.52;;
4873;SDS011;2451;49.970;9.068;2024-03-02T08:12:24;22.15;;;12.13;;
4873;SDS011;2451;49.970;9.068;2024-03-02T08:14:50;20.10;;;10.82;;
4873;SDS011;2451;49.970;9.068;2024-03-02T08:17:16;22.05;;;12.85;;
4873;SDS011;2451;49.970;9.068;2024-03-02T08:19:42;26.20;;;14.27;;
4873;SDS011;2451;49.970;9.068;2024-03-02T08:22:07;20.58;;;11.15;;
4873;SDS011;2451;49.970;9.068;2024-03-02T08:24:33;19.27;;;10.82;;
4873;SDS011;2451;49.970;9.068;2024-03-02T08:26:59;20.45;;;11.38;;
4873;SDS011;2451;49.970;9.068;2024-03-02T08:29:25;20.27;;;10.82;;
4873;SDS011;2451;49.970;9.068;2024-03-02T08:31:50;18.10;;;9.73;;
4873;SDS011;2451;49.970;9.068;2024-03-02T08:34:16;19.60;;;10.52;;
4873;SDS011;2451;49.970;9.068;2024-03-02T08:36:42;18.00;;;10.10;;
4873;SDS011;2451;49.970;9.068;2024-03-02T08:39:08;22.80;;;10.90;;
4873;SDS011;2451;49.970;9.068;2024-03-02T08:41:41;20.58;;;10.38;;
4873;SDS011;2451;49.970;9.068;2024-03-02T08:44:08;16.13;;;9.77;;
4873;SDS011;2451;49.970;9.068;2024-03-02T08:46:36;14.90;;;8.55;;
4873;SDS011;2451;49.970;9.068;2024-03-02T08:49:02;16.13;;;8.70;;
4873;SDS011;2451;49.970;9.068;2024-03-02T08:51:28;15.63;;;8.65;;
4873;SDS011;2451;49.970;9.068;2024-03-02T08:53:53;15.15;;;8.80;;
4873;SDS011;2451;49.970;9.068;2024-03-02T08:56:19;14.82;;;7.63;;
4873;SDS011;2451;49.970;9.068;2024-03-02T08:58:46;16.90;;;10.60;;
4873;SDS011;2451;49.970;9.068;2024-03-02T09:01:12;13.52;;;8.35;;
4873;SDS011;2451;49.970;9.068;2024-03-02T09:03:41;15.85;;;9.27;;
4873;SDS011;2451;49.970;9.068;2024-03-02T09:06:09;15.25;;;8.88;;
4873;SDS011;2451;49.970;9.068;2024-03-02T09:08:36;15.50;;;8.15;;
4873;SDS011;2451;49.970;9.068;2024-03-02T09:11:02;15.32;;;8.48;;
4873;SDS011;2451;49.970;9.068;2024-03-02T09:13:31;15.60;;;8.30;;
4873;SDS011;2451;49.970;9.068;2024-03-02T09:15:58;14.82;;;8.15;;
4873;SDS011;2451;49.970;9.068;2024-03-02T09:18:23;14.80;;;7.78;;
4873;SDS011;2451;49.970;9.068;2024-03-02T09:20:49;14.93;;;7.50;;
4873;SDS011;2451;49.970;9.068;2024-03-02T09:23:14;16.55;;;8.95;;
4873;SDS011;2451;49.970;9.068;2024-03-02T09:25:40;15.65;;;8.40;;
4873;SDS011;2451;49.970;9.068;2024-03-02T09:28:05;15.45;;;8.75;;
4873;SDS011;2451;49.970;9.068;2024-03-02T09:30:34;17.50;;;9.07;;
4873;SDS011;2451;49.970;9.068;2024-03-02T09:33:00;15.32;;;8.20;;
4873;SDS011;2451;49.970;9.068;2024-03-02T09:35:25;14.48;;;7.82;;
4873;SDS011;2451;49.970;9.068;2024-03-02T09:37:51;14.65;;;7.82;;
4873;SDS011;2451;49.970;9.068;2024-03-02T09:40:16;14.38;;;7.75;;
4873;SDS011;2451;49.970;9.068;2024-03-02T09:42:42;13.60;;;6.72;;
4873;SDS011;2451;49.970;9.068;2024-03-02T09:45:10;13.18;;;6.97;;
4873;SDS011;2451;49.970;9.068;2024-03-02T09:47:35;12.10;;;6.82;;
4873;SDS011;2451;49.970;9.068;2024-03-02T09:50:04;12.25;;;6.60;;
4873;SDS011;2451;49.970;9.068;2024-03-02T09:52:33;13.57;;;7.63;;
4873;SDS011;2451;49.970;9.068;2024-03-02T09:54:58;12.73;;;7.03;;
4873;SDS011;2451;49.970;9.068;2024-03-02T09:57:24;11.77;;;6.85;;
4873;SDS011;2451;49.970;9.068;2024-03-02T09:59:50;13.02;;;6.50;;
4873;SDS011;2451;49.970;9.068;2024-03-02T10:02:15;12.13;;;6.28;;
4873;SDS011;2451;49.970;9.068;2024-03-02T10:04:44;11.20;;;5.97;;
4873;SDS011;2451;49.970;9.068;2024-03-02T10:07:16;12.38;;;6.18;;
4873;SDS011;2451;49.970;9.068;2024-03-02T10:09:44;12.40;;;6.60;;
4873;SDS011;2451;49.970;9.068;2024-03-02T10:12:11;11.90;;;6.30;;
4873;SDS011;2451;49.970;9.068;2024-03-02T10:14:39;11.85;;;5.72;;
4873;SDS011;2451;49.970;9.068;2024-03-02T10:17:06;11.95;;;6.70;;
4873;SDS011;2451;49.970;9.068;2024-03-02T10:19:33;12.02;;;5.90;;
4873;SDS011;2451;49.970;9.068;2024-03-02T10:22:03;8.80;;;5.70;;
4873;SDS011;2451;49.970;9.068;2024-03-02T10:24:40;7.68;;;4.50;;
4873;SDS011;2451;49.970;9.068;2024-03-02T10:27:09;10.32;;;5.55;;
4873;SDS011;2451;49.970;9.068;2024-03-02T10:29:40;9.90;;;5.47;;
4873;SDS011;2451;49.970;9.068;2024-03-02T10:32:09;7.15;;;4.57;;
4873;SDS011;2451;49.970;9.068;2024-03-02T10:34:45;7.90;;;4.18;;
4873;SDS011;2451;49.970;9.068;2024-03-02T10:37:12;9.43;;;4.43;;
4873;SDS011;2451;49.970;9.068;2024-03-02T10:39:39;7.95;;;4.80;;
4873;SDS011;2451;49.970;9.068;2024-03-02T10:42:08;7.30;;;4.07;;
4873;SDS011;2451;49.970;9.068;2024-03-02T10:44:34;7.47;;;4.50;;
4873;SDS011;2451;49.970;9.068;2024-03-02T10:47:02;7.60;;;4.05;;
4873;SDS011;2451;49.970;9.068;2024-03-02T10:49:31;7.35;;;4.40;;
4873;SDS011;2451;49.970;9.068;2024-03-02T10:52:00;7.80;;;4.50;;
4873;SDS011;2451;49.970;9.068;2024-03-02T10:54:26;7.00;;;4.10;;
4873;SDS011;2451;49.970;9.068;2024-03-02T10:56:54;7.20;;;4.00;;
4873;SDS011;2451;49.970;9.068;2024-03-02T10:59:26;7.13;;;3.97;;
4873;SDS011;2451;49.970;9.068;2024-03-02T11:01:56;6.18;;;3.50;;
4873;SDS011;2451;49.970;9.068;2024-03-02T11:06:50;6.78;;;3.92;;
4873;SDS011;2451;49.970;9.068;2024-03-02T11:09:18;8.50;;;3.92;;
4873;SDS011;2451;49.970;9.068;2024-03-02T11:11:49;6.60;;;3.97;;
4873;SDS011;2451;49.970;9.068;2024-03-02T11:14:37;7.18;;;4.00;;
4873;SDS011;2451;49.970;9.068;2024-03-02T11:17:11;7.40;;;3.75;;
4873;SDS011;2451;49.970;9.068;2024-03-02T11:19:42;7.43;;;3.72;;
4873;SDS011;2451;49.970;9.068;2024-03-02T11:22:09;5.63;;;3.17;;
4873;SDS011;2451;49.970;9.068;2024-03-02T11:24:35;6.70;;;4.00;;
4873;SDS011;2451;49.970;9.068;2024-03-02T11:27:02;6.65;;;3.38;;
4873;SDS011;2451;49.970;9.068;2024-03-02T11:34:50;5.00;;;2.72;;
4873;SDS011;2451;49.970;9.068;2024-03-02T11:37:17;4.45;;;2.42;;
4873;SDS011;2451;49.970;9.068;2024-03-02T11:39:48;4.45;;;2.33;;
4873;SDS011;2451;49.970;9.068;2024-03-02T11:42:15;3.80;;;2.17;;
4873;SDS011;2451;49.970;9.068;2024-03-02T11:44:42;4.57;;;3.03;;
4873;SDS011;2451;49.970;9.068;2024-03-02T11:47:10;5.75;;;2.55;;
4873;SDS011;2451;49.970;9.068;2024-03-02T11:49:43;4.10;;;2.42;;
4873;SDS011;2451;49.970;9.068;2024-03-02T11:52:13;4.53;;;2.50;;
4873;SDS011;2451;49.970;9.068;2024-03-02T11:54:43;4.43;;;2.78;;
4873;SDS011;2451;49.970;9.068;2024-03-02T11:57:20;4.47;;;2.50;;
4873;SDS011;2451;49.970;9.068;2024-03-02T11:59:51;4.78;;;2.83;;
4873;SDS011;2451;49.970;9.068;2024-03-02T12:02:18;6.00;;;3.00;;
4873;SDS011;2451;49.970;9.068;2024-03-02T12:04:48;4.05;;;2.40;;
4873;SDS011;2451;49.970;9.068;2024-03-02T12:07:20;4.80;;;2.08;;
4873;SDS011;2451;49.970;9.068;2024-03-02T12:09:59;3.70;;;2.20;;
4873;SDS011;2451;49.970;9.068;2024-03-02T12:12:26;4.00;;;2.40;;
4873;SDS011;2451;49.970;9.068;2024-03-02T12:14:52;3.92;;;2.45;;
4873;SDS011;2451;49.970;9.068;2024-03-02T12:17:21;4.35;;;2.53;;
4873;SDS011;2451;49.970;9.068;2024-03-02T12:19:48;4.28;;;2.58;;
4873;SDS011;2451;49.970;9.068;2024-03-02T12:22:13;4.97;;;2.70;;
4873;SDS011;2451;49.970;9.068;2024-03-02T12:24:40;4.15;;;2.50;;
4873;SDS011;2451;49.970;9.068;2024-03-02T12:27:10;4.50;;;2.33;;
4873;SDS011;2451;49.970;9.068;2024-03-02T12:29:37;5.47;;;2.30;;
4873;SDS011;2451;49.970;9.068;2024-03-02T12:32:04;4.68;;;2.25;;
4873;SDS011;2451;49.970;9.068;2024-03-02T12:34:31;3.78;;;2.50;;
4873;SDS011;2451;49.970;9.068;2024-03-02T12:36:56;3.70;;;2.13;;
4873;SDS011;2451;49.970;9.068;2024-03-02T12:39:22;3.63;;;2.30;;
4873;SDS011;2451;49.970;9.068;2024-03-02T12:41:48;4.97;;;2.40;;
4873;SDS011;2451;49.970;9.068;2024-03-02T12:44:19;4.90;;;2.80;;
4873;SDS011;2451;49.970;9.068;2024-03-02T12:46:45;4.25;;;2.28;;
4873;SDS011;2451;49.970;9.068;2024-03-02T12:49:12;3.47;;;2.00;;
4873;SDS011;2451;49.970;9.068;2024-03-02T12:51:39;3.50;;;1.90;;
4873;SDS011;2451;49.970;9.068;2024-03-02T12:54:06;3.58;;;1.98;;
4873;SDS011;2451;49.970;9.068;2024-03-02T12:56:33;3.58;;;1.75;;
4873;SDS011;2451;49.970;9.068;2024-03-02T12:58:58;2.47;;;1.25;;
4873;SDS011;2451;49.970;9.068;2024-03-02T13:01:24;2.47;;;1.40;;
4873;SDS011;2451;49.970;9.068;2024-03-02T13:03:50;2.40;;;1.52;;
4873;SDS011;2451;49.970;9.068;2024-03-02T13:06:18;2.00;;;1.35;;
4873;SDS011;2451;49.970;9.068;2024-03-02T13:08:44;2.60;;;1.70;;
4873;SDS011;2451;49.970;9.068;2024-03-02T13:11:10;2.88;;;1.50;;
4873;SDS011;2451;49.970;9.068;2024-03-02T13:13:37;3.10;;;1.50;;
4873;SDS011;2451;49.970;9.068;2024-03-02T13:16:07;1.48;;;1.17;;
4873;SDS011;2451;49.970;9.068;2024-03-02T13:18:40;2.05;;;1.08;;
4873;SDS011;2451;49.970;9.068;2024-03-02T13:21:06;2.38;;;1.20;;
4873;SDS011;2451;49.970;9.068;2024-03-02T13:23:32;3.03;;;1.75;;
4873;SDS011;2451;49.970;9.068;2024-03-02T13:25:58;2.75;;;1.38;;
4873;SDS011;2451;49.970;9.068;2024-03-02T13:28:26;1.67;;;1.00;;
4873;SDS011;2451;49.970;9.068;2024-03-02T13:30:52;1.90;;;1.23;;
4873;SDS011;2451;49.970;9.068;2024-03-02T13:33:17;2.58;;;1.58;;
4873;SDS011;2451;49.970;9.068;2024-03-02T13:35:47;2.33;;;1.40;;
4873;SDS011;2451;49.970;9.068;2024-03-02T13:38:14;1.65;;;1.10;;
4873;SDS011;2451;49.970;9.068;2024-03-02T13:40:41;4.15;;;1.52;;
4873;SDS011;2451;49.970;9.068;2024-03-02T13:43:06;3.53;;;1.60;;
4873;SDS011;2451;49.970;9.068;2024-03-02T13:45:32;2.35;;;1.60;;
4873;SDS011;2451;49.970;9.068;2024-03-02T13:47:57;2.88;;;1.50;;
4873;SDS011;2451;49.970;9.068;2024-03-02T13:50:23;2.15;;;1.25;;
4873;SDS011;2451;49.970;9.068;2024-03-02T13:52:49;1.67;;;1.10;;
4873;SDS011;2451;49.970;9.068;2024-03-02T13:55:14;2.30;;;1.25;;
4873;SDS011;2451;49.970;9.068;2024-03-02T13:57:40;1.65;;;1.10;;
4873;SDS011;2451;49.970;9.068;2024-03-02T14:00:05;2.53;;;1.27;;
4873;SDS011;2451;49.970;9.068;2024-03-02T14:02:35;2.92;;;1.40;;
4873;SDS011;2451;49.970;9.068;2024-03-02T14:05:01;2.70;;;1.48;;
4873;SDS011;2451;49.970;9.068;2024-03-02T14:07:26;2.60;;;1.35;;
4873;SDS011;2451;49.970;9.068;2024-03-02T14:09:52;2.25;;;1.30;;
4873;SDS011;2451;49.970;9.068;2024-03-02T14:12:17;3.67;;;1.45;;
4873;SDS011;2451;49.970;9.068;2024-03-02T14:14:43;3.00;;;1.70;;
4873;SDS011;2451;49.970;9.068;2024-03-02T14:17:08;2.10;;;1.30;;
4873;SDS011;2451;49.970;9.068;2024-03-02T14:19:39;2.15;;;1.30;;
4873;SDS011;2451;49.970;9.068;2024-03-02T14:22:04;1.95;;;1.20;;
4873;SDS011;2451;49.970;9.068;2024-03-02T14:24:30;2.03;;;1.23;;
4873;SDS011;2451;49.970;9.068;2024-03-02T14:26:55;2.80;;;1.40;;
4873;SDS011;2451;49.970;9.068;2024-03-02T14:29:26;2.22;;;1.17;;
4873;SDS011;2451;49.970;9.068;2024-03-02T14:31:52;2.78;;;1.30;;
4873;SDS011;2451;49.970;9.068;2024-03-02T14:34:17;2.95;;;1.75;;
4873;SDS011;2451;49.970;9.068;2024-03-02T14:36:43;2.70;;;1.52;;
4873;SDS011;2451;49.970;9.068;2024-03-02T14:39:09;3.20;;;1.63;;
4873;SDS011;2451;49.970;9.068;2024-03-02T14:41:35;3.55;;;1.88;;
4873;SDS011;2451;49.970;9.068;2024-03-02T14:44:01;3.00;;;1.60;;
4873;SDS011;2451;49.970;9.068;2024-03-02T14:46:27;2.40;;;1.67;;
4873;SDS011;2451;49.970;9.068;2024-03-02T14:48:53;3.15;;;1.60;;
4873;SDS011;2451;49.970;9.068;2024-03-02T14:51:18;3.63;;;1.73;;
4873;SDS011;2451;49.970;9.068;2024-03-02T14:53:44;2.55;;;1.73;;
4873;SDS011;2451;49.970;9.068;2024-03-02T14:56:09;4.00;;;1.90;;
4873;SDS011;2451;49.970;9.068;2024-03-02T14:58:35;3.35;;;1.75;;
4873;SDS011;2451;49.970;9.068;2024-03-02T15:01:01;3.65;;;1.92;;
4873;SDS011;2451;49.970;9.068;2024-03-02T15:03:28;3.40;;;2.08;;
4873;SDS011;2451;49.970;9.068;2024-03-02T15:05:54;2.33;;;1.33;;
4873;SDS011;2451;49.970;9.068;2024-03-02T15:08:19;3.85;;;1.73;;
4873;SDS011;2451;49.970;9.068;2024-03-02T15:10:45;3.50;;;2.08;;